Samanzing Airstrip

METAR AYNZ TAF N/A
24 °C
°C
-
°C
56m
Alter
21:55:52
LT
20:55
UTC
0 ft

1.000

2.000

3.000

4.000

5.000

FEW 1.000
BKN 4.000
VFR
<?= Yii::t('app', 'Wind direction') ?> <?= Yii::t('app', 'of'); ?>
250°
18:38
Sonne unter
89%
Luftfeuchtigkeit
Windscherung
Geschlossen/Schnee
RWY-Sichtweite
RWY Zustand
Vert. Sichtweite
Min. Sichtbarkeit
CAVOK
Trend
Korrektur
Besonderer Bericht
1007 hPa
QNH
METAR AYNZ 272000Z 25003KT 9999 FEW010 BKN040 24/22 Q1007
Durchbrochene Wolken
0 kt
0 kt
10 km+
Sichtweite
4.000 ft
Wolkendecke
3 kt
Wind
metar-taf.com/AYSZ

Metar-Taf.com

Visueller Decoder

Wir und Dritte verfolgen dein Internetverhalten auf unserer Website mit Cookies. Wenn du fortfährst, gehen wir davon aus, dass du mit unserer Cookie-Richtlinie einverstanden bist.